Time;durP1;ratioP1;P1;durP2;ratioP2;P2;SDS_P1;SDS_P2;PMS_P1;PMS_P2;Temp;Humidity;BMP_temperature;BMP_pressure;BME280_temperature;BME280_humidity;BME280_pressure;Samples;Min_cycle;Max_cycle;Signal;HPM_P1;HPM_P2
2022/11/30 00:01:13;;;;;;;46.00;30.15;;;7.30;99.90;;;;;;5004594;28;20447;-77
2022/11/30 00:03:41;;;;;;;50.17;30.30;;;7.30;99.90;;;;;;5011030;28;20791;-78
2022/11/30 00:06:11;;;;;;;46.13;29.80;;;7.30;99.90;;;;;;5012522;28;20398;-78
2022/11/30 00:08:38;;;;;;;46.70;30.20;;;7.30;99.90;;;;;;5008892;28;20432;-79
2022/11/30 00:11:09;;;;;;;47.08;31.38;;;7.30;99.90;;;;;;5010746;28;20416;-78
2022/11/30 00:13:36;;;;;;;47.58;29.80;;;7.30;99.90;;;;;;5009410;28;20448;-78
2022/11/30 00:16:03;;;;;;;46.95;30.38;;;7.30;99.90;;;;;;5002826;28;20448;-78
2022/11/30 00:18:30;;;;;;;41.42;29.38;;;7.40;99.90;;;;;;5007852;28;20907;-78
2022/11/30 00:20:59;;;;;;;45.60;31.05;;;7.40;99.90;;;;;;5010991;28;20444;-78
2022/11/30 00:23:31;;;;;;;53.17;30.42;;;7.40;99.90;;;;;;5012997;28;20421;-78
2022/11/30 00:26:01;;;;;;;55.13;32.97;;;7.40;99.90;;;;;;5012432;28;20420;-77
2022/11/30 00:28:28;;;;;;;47.88;31.65;;;7.40;99.90;;;;;;5010230;28;20443;-77
2022/11/30 00:30:58;;;;;;;46.42;31.70;;;7.40;99.90;;;;;;5012134;28;20744;-77
2022/11/30 00:33:25;;;;;;;51.17;31.52;;;7.40;99.90;;;;;;5003322;28;20431;-77
2022/11/30 00:35:58;;;;;;;50.50;30.80;;;7.40;99.90;;;;;;5006827;28;20440;-77
2022/11/30 00:38:27;;;;;;;55.60;32.10;;;7.30;99.90;;;;;;5006882;28;20428;-77
2022/11/30 00:40:55;;;;;;;54.35;32.63;;;7.40;99.90;;;;;;5009630;28;20447;-77
2022/11/30 00:43:22;;;;;;;53.40;33.20;;;7.30;99.90;;;;;;5009996;28;20883;-77
2022/11/30 00:45:49;;;;;;;57.50;32.92;;;7.30;99.90;;;;;;5027669;28;20427;-77
2022/11/30 00:48:15;;;;;;;56.93;32.97;;;7.30;99.90;;;;;;5026958;28;20521;-78
2022/11/30 00:50:42;;;;;;;60.70;34.00;;;7.30;99.90;;;;;;5023598;28;20417;-77
2022/11/30 00:53:09;;;;;;;56.50;34.35;;;7.30;99.90;;;;;;5010909;28;20448;-77
2022/11/30 00:55:37;;;;;;;59.50;36.17;;;7.30;99.90;;;;;;5012988;28;20421;-77
2022/11/30 00:58:05;;;;;;;56.22;34.70;;;7.20;99.90;;;;;;5011870;28;20436;-77
2022/11/30 01:00:33;;;;;;;58.27;35.23;;;7.20;99.90;;;;;;5021247;28;20606;-77
2022/11/30 01:03:01;;;;;;;65.47;36.65;;;7.10;99.90;;;;;;5023046;28;20492;-77
2022/11/30 01:05:27;;;;;;;64.80;37.40;;;7.10;99.90;;;;;;5023123;28;20421;-77
2022/11/30 01:07:54;;;;;;;63.70;35.88;;;7.10;99.90;;;;;;5017960;28;20436;-77
2022/11/30 01:10:22;;;;;;;62.50;36.53;;;7.10;99.90;;;;;;5008850;28;20423;-77
2022/11/30 01:12:50;;;;;;;62.67;36.40;;;7.20;99.90;;;;;;5007362;28;20889;-78
2022/11/30 01:15:17;;;;;;;64.35;36.45;;;7.20;99.90;;;;;;5001405;28;20433;-78
2022/11/30 01:17:44;;;;;;;71.22;38.30;;;7.20;99.90;;;;;;5006270;28;20440;-77
2022/11/30 01:20:11;;;;;;;69.47;38.10;;;7.10;99.90;;;;;;5008850;28;20524;-77
2022/11/30 01:22:38;;;;;;;71.37;38.13;;;7.20;99.90;;;;;;5000724;28;20594;-78
2022/11/30 01:25:05;;;;;;;68.13;37.78;;;7.10;99.90;;;;;;5006991;28;20413;-77
2022/11/30 01:27:32;;;;;;;65.35;37.65;;;7.20;99.90;;;;;;5007546;28;20441;-77
2022/11/30 01:30:00;;;;;;;68.37;36.70;;;7.20;99.90;;;;;;5006549;28;20432;-77
2022/11/30 01:32:28;;;;;;;69.57;38.45;;;7.20;99.90;;;;;;5001808;28;20425;-77
2022/11/30 01:34:55;;;;;;;70.50;36.13;;;7.20;99.90;;;;;;5008055;28;20497;-77
2022/11/30 01:37:21;;;;;;;68.90;36.60;;;7.20;99.90;;;;;;5007474;28;21098;-76
2022/11/30 01:39:48;;;;;;;75.63;38.57;;;7.20;99.90;;;;;;5007585;28;20509;-77
2022/11/30 01:42:17;;;;;;;74.70;39.00;;;7.20;99.90;;;;;;5005973;28;20444;-77
2022/11/30 01:44:53;;;;;;;65.95;37.50;;;7.20;99.90;;;;;;5007324;28;20433;-77
2022/11/30 01:47:28;;;;;;;66.22;36.13;;;7.20;99.90;;;;;;4998247;28;20495;-77
2022/11/30 01:50:02;;;;;;;71.45;38.10;;;7.20;99.90;;;;;;5006777;28;20464;-77
2022/11/30 01:52:33;;;;;;;69.93;37.67;;;7.20;99.90;;;;;;5007743;28;20416;-77
2022/11/30 01:55:07;;;;;;;68.10;36.17;;;7.20;99.90;;;;;;5008476;28;20444;-77
2022/11/30 01:57:38;;;;;;;73.82;36.85;;;7.20;99.90;;;;;;5007658;28;20436;-77
2022/11/30 02:00:08;;;;;;;70.40;36.70;;;7.20;99.90;;;;;;5007194;28;20455;-79
2022/11/30 02:02:43;;;;;;;72.75;37.90;;;7.20;99.90;;;;;;5008896;28;20496;-77
2022/11/30 02:05:12;;;;;;;70.00;38.33;;;7.20;99.90;;;;;;5008027;28;20444;-77
2022/11/30 02:07:39;;;;;;;72.60;38.20;;;7.20;99.90;;;;;;5006532;28;20433;-77
2022/11/30 02:10:07;;;;;;;75.28;39.03;;;7.20;99.90;;;;;;5007802;28;20432;-77
2022/11/30 02:12:40;;;;;;;75.28;39.22;;;7.20;99.90;;;;;;5008695;28;20780;-76
2022/11/30 02:15:11;;;;;;;74.75;37.92;;;7.20;99.90;;;;;;5003830;28;20534;-79
2022/11/30 02:17:49;;;;;;;73.70;36.88;;;7.20;99.90;;;;;;4999132;28;20936;-77
2022/11/30 02:20:35;;;;;;;80.88;38.90;;;7.20;99.90;;;;;;4998886;28;20499;-78
2022/11/30 02:23:38;;;;;;;74.20;37.33;;;7.20;99.90;;;;;;5006854;28;20429;-77
2022/11/30 02:26:20;;;;;;;71.10;37.00;;;7.20;99.90;;;;;;5021309;28;20443;-77
2022/11/30 02:29:03;;;;;;;75.25;38.65;;;7.20;99.90;;;;;;5023230;28;20462;-78
2022/11/30 02:31:33;;;;;;;75.95;38.25;;;7.20;99.90;;;;;;5006796;28;20409;-77
2022/11/30 02:34:03;;;;;;;78.82;38.20;;;7.20;99.90;;;;;;5005284;28;20447;-77
2022/11/30 02:36:31;;;;;;;79.95;38.67;;;7.20;99.90;;;;;;5007967;28;20413;-78
2022/11/30 02:38:58;;;;;;;82.00;38.20;;;7.30;99.90;;;;;;5007475;28;20491;-77
2022/11/30 02:41:25;;;;;;;76.10;37.10;;;7.30;99.90;;;;;;4998766;28;20436;-77
2022/11/30 02:43:53;;;;;;;74.13;34.75;;;7.30;99.90;;;;;;5006457;28;20429;-77
2022/11/30 02:46:27;;;;;;;71.90;34.78;;;7.20;99.90;;;;;;5000422;28;20436;-78
2022/11/30 02:49:01;;;;;;;70.57;34.92;;;7.20;99.90;;;;;;5007695;28;20444;-77
2022/11/30 02:51:29;;;;;;;74.40;36.00;;;7.20;99.90;;;;;;5008957;28;20428;-78
2022/11/30 02:53:57;;;;;;;69.97;32.22;;;7.20;99.90;;;;;;5001741;28;20424;-77
2022/11/30 02:56:24;;;;;;;72.60;34.90;;;7.20;99.90;;;;;;5009157;28;20765;-78
2022/11/30 02:58:53;;;;;;;65.20;33.90;;;7.20;99.90;;;;;;5006593;28;20452;-78
2022/11/30 03:01:19;;;;;;;65.80;32.47;;;7.20;99.90;;;;;;5008027;28;20501;-78
2022/11/30 03:03:46;;;;;;;66.78;33.03;;;7.20;99.90;;;;;;5007525;28;20767;-78
2022/11/30 03:06:13;;;;;;;66.22;32.92;;;7.20;99.90;;;;;;5016440;28;20432;-77
2022/11/30 03:08:40;;;;;;;64.95;33.05;;;7.20;99.90;;;;;;5023282;28;20443;-78
2022/11/30 03:11:06;;;;;;;69.47;32.80;;;7.20;99.90;;;;;;5024760;28;20517;-78
2022/11/30 03:13:34;;;;;;;68.82;33.28;;;7.20;99.90;;;;;;5027016;28;20431;-78
2022/11/30 03:16:07;;;;;;;70.45;34.13;;;7.20;99.90;;;;;;5021804;28;20491;-78
2022/11/30 03:18:34;;;;;;;77.43;33.30;;;7.20;99.90;;;;;;5012152;28;20434;-78
2022/11/30 03:21:00;;;;;;;72.47;34.10;;;7.20;99.90;;;;;;5013598;28;20432;-78
2022/11/30 03:23:28;;;;;;;71.20;33.63;;;7.20;99.90;;;;;;5012435;28;20439;-78
2022/11/30 03:25:57;;;;;;;67.22;32.80;;;7.30;99.90;;;;;;5010822;28;20433;-78
2022/11/30 03:28:24;;;;;;;73.90;33.10;;;7.20;99.90;;;;;;5010882;28;20432;-77
2022/11/30 03:30:51;;;;;;;72.47;32.30;;;7.30;99.90;;;;;;5009586;28;20417;-78
2022/11/30 03:33:19;;;;;;;68.72;33.53;;;7.30;99.90;;;;;;5009757;28;20466;-78
2022/11/30 03:35:46;;;;;;;66.78;33.63;;;7.20;99.90;;;;;;5011680;28;20510;-79
2022/11/30 03:38:13;;;;;;;76.72;34.17;;;7.20;99.90;;;;;;5003647;28;20930;-78
2022/11/30 03:40:40;;;;;;;75.38;34.90;;;7.20;99.90;;;;;;5011659;28;20582;-77
2022/11/30 03:43:07;;;;;;;66.15;33.10;;;7.20;99.90;;;;;;5003696;28;20942;-78
2022/11/30 03:45:33;;;;;;;68.75;35.15;;;7.30;99.90;;;;;;5012199;28;20895;-78
2022/11/30 03:48:00;;;;;;;76.63;34.73;;;7.30;99.90;;;;;;5010529;28;20432;-78
2022/11/30 03:50:28;;;;;;;74.30;36.47;;;7.30;99.90;;;;;;5010668;28;20913;-78
2022/11/30 03:52:55;;;;;;;70.00;33.75;;;7.30;99.90;;;;;;5012806;28;20428;-78
2022/11/30 03:55:22;;;;;;;68.93;33.65;;;7.30;99.90;;;;;;5007466;28;20445;-77
2022/11/30 03:57:48;;;;;;;83.10;36.20;;;7.30;99.90;;;;;;5005851;28;20484;-77
2022/11/30 04:00:16;;;;;;;74.40;34.80;;;7.30;99.90;;;;;;5009447;28;20816;-78
2022/11/30 04:02:43;;;;;;;76.88;35.70;;;7.30;99.90;;;;;;5009799;28;20514;-78
2022/11/30 04:05:10;;;;;;;76.15;36.20;;;7.30;99.90;;;;;;5002121;28;20436;-78
2022/11/30 04:07:38;;;;;;;80.50;38.17;;;7.30;99.90;;;;;;5027335;28;20451;-78
2022/11/30 04:10:05;;;;;;;85.38;36.15;;;7.30;99.90;;;;;;5029838;28;20442;-78
2022/11/30 04:12:32;;;;;;;91.55;39.00;;;7.30;99.90;;;;;;5020336;28;20416;-77
2022/11/30 04:14:59;;;;;;;80.43;36.85;;;7.30;99.90;;;;;;5009369;28;20810;-78
2022/11/30 04:17:26;;;;;;;81.68;38.72;;;7.30;99.90;;;;;;5010346;28;20420;-77
2022/11/30 04:19:53;;;;;;;83.47;38.67;;;7.30;99.90;;;;;;5009923;28;20488;-78
2022/11/30 04:22:20;;;;;;;87.88;38.78;;;7.30;99.90;;;;;;5010865;28;20436;-77
2022/11/30 04:24:48;;;;;;;82.78;39.35;;;7.40;99.90;;;;;;5010655;28;20443;-78
2022/11/30 04:27:14;;;;;;;89.95;40.67;;;7.40;99.90;;;;;;5009929;28;20443;-78
2022/11/30 04:29:41;;;;;;;89.65;39.17;;;7.40;99.90;;;;;;5009754;28;20459;-78
2022/11/30 04:32:08;;;;;;;85.38;36.70;;;7.40;99.90;;;;;;5008983;28;20544;-78
2022/11/30 04:34:35;;;;;;;90.90;39.45;;;7.40;99.90;;;;;;5008645;28;20946;-78
2022/11/30 04:37:01;;;;;;;93.45;40.30;;;7.40;99.90;;;;;;5009733;28;20425;-78
2022/11/30 04:39:28;;;;;;;98.90;40.13;;;7.40;99.90;;;;;;5008797;28;20923;-78
2022/11/30 04:41:56;;;;;;;104.43;42.00;;;7.40;99.90;;;;;;5009609;28;20976;-78
2022/11/30 04:44:23;;;;;;;99.35;41.60;;;7.40;99.90;;;;;;5003457;28;20446;-77
2022/11/30 04:46:50;;;;;;;108.55;42.63;;;7.40;99.90;;;;;;5006521;28;20423;-78
2022/11/30 04:49:16;;;;;;;100.55;42.45;;;7.40;99.90;;;;;;5007278;28;20436;-77
2022/11/30 04:51:43;;;;;;;101.93;43.30;;;7.40;99.90;;;;;;5008989;28;20430;-77
2022/11/30 04:54:10;;;;;;;102.95;44.13;;;7.40;99.90;;;;;;5008584;28;20424;-78
2022/11/30 04:56:37;;;;;;;115.82;45.35;;;7.40;99.90;;;;;;5008417;28;20415;-78
2022/11/30 04:59:05;;;;;;;102.78;43.70;;;7.40;99.90;;;;;;5014156;28;20440;-79
2022/11/30 05:01:31;;;;;;;99.30;44.50;;;7.40;99.90;;;;;;5026653;28;20433;-80
2022/11/30 05:03:59;;;;;;;93.20;40.97;;;7.40;99.90;;;;;;5017530;28;20557;-78
2022/11/30 05:06:26;;;;;;;88.53;41.33;;;7.40;99.90;;;;;;5022279;28;20432;-77
2022/11/30 05:08:52;;;;;;;85.25;39.90;;;7.40;99.90;;;;;;5006725;28;20439;-79
2022/11/30 05:11:19;;;;;;;77.28;38.58;;;7.40;99.90;;;;;;5009868;28;20524;-78
2022/11/30 05:13:46;;;;;;;71.18;37.10;;;7.40;99.90;;;;;;5004286;28;20436;-77
2022/11/30 05:16:14;;;;;;;70.78;37.17;;;7.40;99.90;;;;;;5005024;28;20437;-77
2022/11/30 05:18:41;;;;;;;71.70;35.78;;;7.40;99.90;;;;;;5007318;28;20433;-77
2022/11/30 05:21:08;;;;;;;69.47;35.97;;;7.40;99.90;;;;;;5007600;28;20447;-76
2022/11/30 05:23:34;;;;;;;66.00;35.03;;;7.40;99.90;;;;;;5007724;28;20520;-77
2022/11/30 05:26:02;;;;;;;67.37;35.47;;;7.40;99.90;;;;;;5008835;28;21162;-78
2022/11/30 05:28:28;;;;;;;67.45;36.85;;;7.40;99.90;;;;;;5007446;28;20502;-78
2022/11/30 05:30:55;;;;;;;63.33;35.67;;;7.40;99.90;;;;;;5007391;28;20451;-78
2022/11/30 05:33:23;;;;;;;64.28;36.70;;;7.50;99.90;;;;;;5005738;28;20460;-77
2022/11/30 05:35:50;;;;;;;53.80;33.60;;;7.50;99.90;;;;;;5007360;28;20432;-77
2022/11/30 05:38:17;;;;;;;51.45;31.90;;;7.50;99.90;;;;;;5005720;28;20444;-77
2022/11/30 05:40:44;;;;;;;54.80;33.55;;;7.50;99.90;;;;;;5004558;28;20442;-77
2022/11/30 05:43:11;;;;;;;55.00;35.55;;;7.50;99.90;;;;;;5002621;28;20917;-64
2022/11/30 05:45:38;;;;;;;52.28;34.10;;;7.50;99.90;;;;;;5004728;28;20895;-64
2022/11/30 05:48:06;;;;;;;52.65;35.55;;;7.50;99.90;;;;;;5003971;28;20439;-78
2022/11/30 05:50:34;;;;;;;56.42;36.90;;;7.60;99.90;;;;;;5015560;28;20440;-77
2022/11/30 05:53:00;;;;;;;62.23;37.50;;;7.60;99.90;;;;;;5026208;28;20483;-77
2022/11/30 05:55:29;;;;;;;63.35;39.28;;;7.60;99.90;;;;;;5017418;28;20438;-77
2022/11/30 05:57:56;;;;;;;67.18;41.17;;;7.60;99.90;;;;;;5007244;28;20421;-76
2022/11/30 06:00:23;;;;;;;66.35;40.25;;;7.50;99.90;;;;;;5003478;28;20446;-77
2022/11/30 06:02:56;;;;;;;70.20;42.25;;;7.50;99.90;;;;;;5002121;28;20428;-76
2022/11/30 06:05:22;;;;;;;74.23;41.27;;;7.50;99.90;;;;;;5005674;28;21238;-78
2022/11/30 06:07:50;;;;;;;67.95;39.95;;;7.50;99.90;;;;;;4997719;28;20446;-78
2022/11/30 06:10:17;;;;;;;65.85;38.80;;;7.50;99.90;;;;;;5010159;28;20432;-78
2022/11/30 06:12:44;;;;;;;62.73;41.00;;;7.50;99.90;;;;;;5004258;28;20429;-77
2022/11/30 06:15:11;;;;;;;62.88;39.33;;;7.50;99.90;;;;;;5002555;28;20552;-76
2022/11/30 06:17:38;;;;;;;63.67;40.40;;;7.40;99.90;;;;;;5006680;28;20896;-77
2022/11/30 06:20:06;;;;;;;65.53;41.17;;;7.40;99.90;;;;;;5005772;28;20535;-78
2022/11/30 06:22:33;;;;;;;62.77;39.40;;;7.40;99.90;;;;;;5001181;28;20528;-77
2022/11/30 06:25:01;;;;;;;59.10;39.78;;;7.40;99.90;;;;;;5001417;28;20439;-76
2022/11/30 06:27:30;;;;;;;61.05;39.20;;;7.40;99.90;;;;;;5003058;28;20433;-78
2022/11/30 06:29:57;;;;;;;60.15;41.05;;;7.40;99.90;;;;;;5008283;28;21018;-77
2022/11/30 06:32:24;;;;;;;57.72;37.95;;;7.40;99.90;;;;;;5012271;28;20983;-78
2022/11/30 06:34:50;;;;;;;59.45;38.63;;;7.40;99.90;;;;;;5015068;28;20890;-77
2022/11/30 06:37:17;;;;;;;55.95;37.10;;;7.40;99.90;;;;;;5021113;28;20421;-78
2022/11/30 06:39:44;;;;;;;50.10;33.83;;;7.40;99.90;;;;;;5020424;28;20425;-79
2022/11/30 06:42:12;;;;;;;47.65;34.35;;;7.40;99.90;;;;;;5005856;28;20432;-78
2022/11/30 06:44:39;;;;;;;45.15;31.40;;;7.40;99.90;;;;;;5010207;28;20424;-78
2022/11/30 06:47:05;;;;;;;44.05;31.33;;;7.40;99.90;;;;;;5005373;28;20417;-77
2022/11/30 06:49:32;;;;;;;39.20;29.45;;;7.30;99.90;;;;;;5005886;28;20435;-77
2022/11/30 06:52:00;;;;;;;41.67;29.17;;;7.40;99.90;;;;;;5008351;28;20484;-78
2022/11/30 06:54:27;;;;;;;40.30;31.33;;;7.30;99.90;;;;;;5001316;28;20433;-78
2022/11/30 06:56:55;;;;;;;38.25;29.20;;;7.30;99.90;;;;;;5001679;28;20436;-77
2022/11/30 06:59:23;;;;;;;38.60;28.98;;;7.30;99.90;;;;;;5005862;28;20911;-78
2022/11/30 07:01:50;;;;;;;35.15;27.95;;;7.30;99.90;;;;;;5006477;28;20463;-78
2022/11/30 07:04:17;;;;;;;37.30;28.23;;;7.30;99.90;;;;;;5000572;28;20443;-78
2022/11/30 07:06:44;;;;;;;38.67;28.00;;;7.30;99.90;;;;;;5005010;28;20990;-78
2022/11/30 07:09:12;;;;;;;35.42;26.52;;;7.30;99.90;;;;;;5006212;28;20647;-78
2022/11/30 07:11:38;;;;;;;33.80;26.00;;;7.30;99.90;;;;;;5006017;28;20495;-77
2022/11/30 07:14:05;;;;;;;31.77;26.30;;;7.30;99.90;;;;;;5006977;28;20428;-78
2022/11/30 07:16:35;;;;;;;32.25;25.80;;;7.30;99.90;;;;;;5004620;28;20494;-79
2022/11/30 07:19:01;;;;;;;35.58;26.83;;;7.20;99.90;;;;;;5003286;28;20437;-78
2022/11/30 07:21:28;;;;;;;30.08;24.20;;;7.20;99.90;;;;;;5004827;28;20858;-77
2022/11/30 07:26:40;;;;;;;32.45;26.38;;;7.20;99.90;;;;;;5006506;28;20415;-78
2022/11/30 07:29:07;;;;;;;32.35;25.95;;;7.10;99.90;;;;;;5005793;28;20424;-78
2022/11/30 07:31:35;;;;;;;29.60;24.88;;;7.10;99.90;;;;;;5001730;28;20485;-78
2022/11/30 07:34:05;;;;;;;29.17;24.05;;;7.10;99.90;;;;;;5009442;28;20545;-78
2022/11/30 07:36:32;;;;;;;31.30;25.00;;;7.10;99.90;;;;;;5002912;28;20475;-78
2022/11/30 07:38:59;;;;;;;28.92;23.80;;;7.10;99.90;;;;;;5004114;28;20494;-76
2022/11/30 07:41:26;;;;;;;28.48;24.60;;;7.10;99.90;;;;;;5004918;28;20447;-77
2022/11/30 07:43:53;;;;;;;34.67;25.15;;;7.00;99.90;;;;;;5004843;28;20437;-76
2022/11/30 07:46:20;;;;;;;27.43;23.10;;;7.10;99.90;;;;;;5025170;28;20435;-77
2022/11/30 07:48:48;;;;;;;28.35;23.88;;;7.10;99.90;;;;;;5027222;28;21201;-76
2022/11/30 07:51:17;;;;;;;29.85;25.40;;;7.10;99.90;;;;;;4996007;28;20448;-77
2022/11/30 07:53:45;;;;;;;29.38;26.13;;;7.10;99.90;;;;;;5005901;28;20432;-77
2022/11/30 07:56:14;;;;;;;27.75;23.13;;;7.00;99.90;;;;;;5015201;28;20443;-78
2022/11/30 07:58:41;;;;;;;31.17;24.75;;;7.00;99.90;;;;;;5010021;28;20500;-77
2022/11/30 08:01:10;;;;;;;26.65;22.80;;;7.00;99.90;;;;;;5018011;28;20847;-77
2022/11/30 08:03:37;;;;;;;25.92;21.20;;;7.00;99.90;;;;;;5024488;28;20440;-77
2022/11/30 08:06:07;;;;;;;26.85;21.35;;;7.10;99.90;;;;;;5020735;28;20462;-77
2022/11/30 08:08:35;;;;;;;27.42;22.77;;;7.00;99.90;;;;;;5023464;28;20440;-78
2022/11/30 08:11:02;;;;;;;25.13;22.08;;;7.00;99.90;;;;;;5022410;28;20516;-78
2022/11/30 08:13:29;;;;;;;24.15;21.55;;;7.10;99.90;;;;;;5017325;28;20549;-77
2022/11/30 08:16:00;;;;;;;26.42;22.23;;;7.10;99.90;;;;;;5028771;28;20440;-77
2022/11/30 08:18:27;;;;;;;24.50;21.27;;;7.10;99.90;;;;;;5021306;28;20551;-77
2022/11/30 08:20:57;;;;;;;25.17;21.85;;;7.10;99.90;;;;;;5021263;28;20424;-78
2022/11/30 08:23:25;;;;;;;24.53;20.77;;;7.20;99.90;;;;;;5018236;28;20429;-77
2022/11/30 08:25:52;;;;;;;24.70;22.00;;;7.20;99.90;;;;;;5020220;28;20444;-77
2022/11/30 08:28:19;;;;;;;26.03;22.50;;;7.20;99.90;;;;;;5007735;28;20437;-77
2022/11/30 08:30:46;;;;;;;24.67;22.00;;;7.20;99.90;;;;;;5007800;28;20512;-77
2022/11/30 08:33:12;;;;;;;24.58;21.33;;;7.20;99.90;;;;;;5000787;28;20573;-77
2022/11/30 08:35:39;;;;;;;25.85;22.42;;;7.20;99.90;;;;;;5006035;28;20807;-77
2022/11/30 08:38:06;;;;;;;24.08;21.40;;;7.20;99.90;;;;;;5002246;28;20441;-77
2022/11/30 08:40:34;;;;;;;24.15;20.70;;;7.20;99.90;;;;;;5008798;28;20452;-78
2022/11/30 08:43:01;;;;;;;26.25;22.35;;;7.20;99.90;;;;;;5009290;28;20429;-78
2022/11/30 08:45:28;;;;;;;29.73;22.90;;;7.20;99.90;;;;;;4999347;28;20523;-77
2022/11/30 08:47:54;;;;;;;25.40;22.50;;;7.30;99.90;;;;;;5003773;28;20502;-77
2022/11/30 08:50:21;;;;;;;24.85;22.23;;;7.20;99.90;;;;;;5001401;28;21477;-77
2022/11/30 08:52:48;;;;;;;26.35;23.55;;;7.20;99.90;;;;;;4991696;28;20438;-78
2022/11/30 08:55:15;;;;;;;24.83;22.05;;;7.20;99.90;;;;;;4998768;28;20450;-77
2022/11/30 08:57:43;;;;;;;26.55;23.67;;;7.30;99.90;;;;;;5000994;28;20451;-78
2022/11/30 09:00:11;;;;;;;25.85;23.02;;;7.20;99.90;;;;;;5002766;28;20457;-77
2022/11/30 09:02:38;;;;;;;27.17;24.27;;;7.20;99.90;;;;;;5002681;28;20439;-77
2022/11/30 09:05:05;;;;;;;27.02;23.80;;;7.20;99.90;;;;;;5006046;28;20511;-76
2022/11/30 09:07:32;;;;;;;27.75;24.02;;;7.20;99.90;;;;;;5001990;28;20443;-77
2022/11/30 09:09:59;;;;;;;27.17;23.90;;;7.20;99.90;;;;;;5007096;28;20451;-77
2022/11/30 09:12:26;;;;;;;25.50;22.80;;;7.20;99.90;;;;;;5003409;28;20436;-77
2022/11/30 09:14:54;;;;;;;26.27;23.48;;;7.20;99.90;;;;;;5007091;28;20931;-77
2022/11/30 09:17:20;;;;;;;28.48;24.02;;;7.20;99.90;;;;;;5005448;28;20519;-77
2022/11/30 09:19:47;;;;;;;27.48;24.50;;;7.20;99.90;;;;;;5009449;28;20440;-78
2022/11/30 09:22:14;;;;;;;30.23;24.70;;;7.20;99.90;;;;;;5004106;28;20489;-78
2022/11/30 09:24:41;;;;;;;26.30;23.70;;;7.20;99.90;;;;;;5009575;28;20437;-77
2022/11/30 09:27:08;;;;;;;27.45;24.65;;;7.20;99.90;;;;;;5009993;28;20447;-77
2022/11/30 09:29:36;;;;;;;28.33;24.27;;;7.10;99.90;;;;;;5005740;28;21007;-77
2022/11/30 09:32:04;;;;;;;27.45;24.45;;;7.10;99.90;;;;;;5005894;28;20432;-77
2022/11/30 09:34:31;;;;;;;29.30;25.55;;;7.10;99.90;;;;;;5003435;28;20457;-77
2022/11/30 09:36:58;;;;;;;30.02;25.42;;;7.10;99.90;;;;;;5005855;28;20435;-76
2022/11/30 09:39:25;;;;;;;29.08;25.88;;;7.10;99.90;;;;;;5005558;28;20443;-77
2022/11/30 09:42:20;;;;;;;28.05;25.05;;;7.10;99.90;;;;;;5002840;28;20543;-76
2022/11/30 09:44:54;;;;;;;28.60;24.40;;;7.10;99.90;;;;;;5005462;28;20423;-78
2022/11/30 09:47:38;;;;;;;28.70;25.60;;;7.20;99.90;;;;;;5015264;28;20448;-79
2022/11/30 09:50:12;;;;;;;29.88;24.85;;;7.20;99.90;;;;;;5016835;28;20597;-77
2022/11/30 09:52:43;;;;;;;28.63;24.40;;;7.20;99.90;;;;;;5012930;28;20440;-78
2022/11/30 09:55:12;;;;;;;29.85;26.63;;;7.20;99.90;;;;;;5014530;28;20424;-77
2022/11/30 09:57:45;;;;;;;34.95;28.20;;;7.20;99.90;;;;;;4995812;28;20988;-77
2022/11/30 10:00:15;;;;;;;32.92;28.02;;;7.20;99.90;;;;;;5003045;28;20513;-77
2022/11/30 10:02:43;;;;;;;34.78;29.08;;;7.10;99.90;;;;;;5000015;28;20542;-77
2022/11/30 10:05:15;;;;;;;34.25;30.05;;;7.10;99.90;;;;;;5004496;28;20454;-77
2022/11/30 10:07:55;;;;;;;34.27;30.00;;;7.10;99.90;;;;;;4999029;28;20467;-78
2022/11/30 10:10:30;;;;;;;35.58;29.30;;;7.10;99.90;;;;;;5005069;28;20430;-77
2022/11/30 10:13:03;;;;;;;34.03;29.83;;;7.00;99.90;;;;;;4995204;28;20437;-77
2022/11/30 10:15:41;;;;;;;34.50;30.20;;;7.10;99.90;;;;;;4997872;28;20433;-77
2022/11/30 10:18:17;;;;;;;33.38;29.75;;;7.10;99.90;;;;;;4998816;28;20440;-77
2022/11/30 10:20:58;;;;;;;34.33;30.63;;;7.20;99.90;;;;;;4998103;28;20637;-77
2022/11/30 10:23:58;;;;;;;33.78;29.08;;;7.10;99.90;;;;;;4997711;28;20436;-78
2022/11/30 10:26:30;;;;;;;33.17;28.33;;;7.10;99.90;;;;;;4971345;28;20428;-75
2022/11/30 10:29:04;;;;;;;33.37;28.60;;;7.10;99.90;;;;;;5006366;28;20525;-76
2022/11/30 10:31:35;;;;;;;35.63;30.02;;;7.10;99.90;;;;;;5007652;28;20421;-75
2022/11/30 10:34:12;;;;;;;35.83;30.15;;;7.10;99.90;;;;;;5004382;28;20436;-76
2022/11/30 10:36:41;;;;;;;34.67;30.67;;;7.10;99.90;;;;;;5004899;28;20529;-77
2022/11/30 10:39:17;;;;;;;37.22;31.65;;;7.10;99.90;;;;;;5003265;28;20440;-76
2022/11/30 10:41:48;;;;;;;36.40;30.23;;;7.10;99.90;;;;;;5005679;28;20436;-76
2022/11/30 10:44:19;;;;;;;34.55;30.40;;;7.10;99.90;;;;;;5004685;28;20995;-75
2022/11/30 10:46:53;;;;;;;36.25;30.70;;;7.20;99.90;;;;;;5005334;28;21079;-76
2022/11/30 10:49:22;;;;;;;37.20;31.40;;;7.20;99.90;;;;;;4998291;28;20466;-76
2022/11/30 10:51:53;;;;;;;34.92;31.17;;;7.10;99.90;;;;;;5004716;28;20536;-75
2022/11/30 10:54:22;;;;;;;36.83;32.15;;;7.10;99.90;;;;;;4997136;28;20409;-75
2022/11/30 10:56:49;;;;;;;38.50;33.00;;;7.10;99.90;;;;;;5004563;28;20436;-76
2022/11/30 10:59:19;;;;;;;38.42;34.22;;;7.00;99.90;;;;;;4999799;28;20490;-75
2022/11/30 11:01:46;;;;;;;39.92;33.97;;;7.00;99.90;;;;;;5003658;28;20456;-76
2022/11/30 11:04:16;;;;;;;41.00;34.90;;;7.00;99.90;;;;;;4999142;28;20465;-75
2022/11/30 11:06:50;;;;;;;40.35;34.42;;;7.00;99.90;;;;;;5010621;28;20413;-76
2022/11/30 11:09:31;;;;;;;40.83;34.08;;;7.00;99.90;;;;;;5007406;28;20549;-76
2022/11/30 11:11:59;;;;;;;40.05;33.78;;;7.00;99.90;;;;;;4997609;28;20891;-75
2022/11/30 11:14:27;;;;;;;41.25;35.90;;;7.10;99.90;;;;;;5003547;28;20488;-75
2022/11/30 11:16:58;;;;;;;39.45;34.90;;;7.10;99.90;;;;;;5002735;28;20431;-75
2022/11/30 11:19:34;;;;;;;41.97;36.03;;;7.10;99.90;;;;;;5003695;28;20570;-76
2022/11/30 11:22:07;;;;;;;43.10;35.85;;;7.20;99.90;;;;;;4998522;28;20432;-76
2022/11/30 11:24:35;;;;;;;39.97;35.00;;;7.20;99.90;;;;;;4997308;28;20547;-75
2022/11/30 11:27:02;;;;;;;42.15;36.03;;;7.20;99.90;;;;;;5000633;28;20429;-76
2022/11/30 11:29:32;;;;;;;42.33;34.92;;;7.20;99.90;;;;;;5001731;28;20445;-76
2022/11/30 11:32:24;;;;;;;41.17;35.22;;;7.20;99.90;;;;;;4999487;28;20502;-75
2022/11/30 11:34:51;;;;;;;43.13;37.45;;;7.20;99.90;;;;;;4999904;28;20487;-75
2022/11/30 11:37:23;;;;;;;46.97;39.22;;;7.10;99.90;;;;;;5001998;28;20432;-76
2022/11/30 11:40:01;;;;;;;43.25;38.08;;;7.10;99.90;;;;;;5006027;28;20444;-76
2022/11/30 11:42:31;;;;;;;45.42;37.42;;;7.00;99.90;;;;;;5007932;28;20846;-76
2022/11/30 11:45:00;;;;;;;44.63;37.60;;;7.10;99.90;;;;;;5006193;28;20683;-76
2022/11/30 11:47:28;;;;;;;44.67;37.20;;;7.10;99.90;;;;;;5006714;28;20788;-77
2022/11/30 11:50:24;;;;;;;46.35;38.50;;;7.20;99.90;;;;;;5007387;28;20495;-76
2022/11/30 11:53:13;;;;;;;48.03;38.47;;;7.20;99.90;;;;;;5002121;28;20442;-78
2022/11/30 11:55:42;;;;;;;49.10;38.88;;;7.20;99.90;;;;;;5002941;28;20803;-76
2022/11/30 11:58:16;;;;;;;47.97;38.47;;;7.10;99.90;;;;;;5007585;28;20445;-77
2022/11/30 12:00:44;;;;;;;48.60;40.15;;;7.10;99.90;;;;;;5005366;28;20432;-77
2022/11/30 12:03:20;;;;;;;43.72;37.53;;;7.10;99.90;;;;;;5002392;28;20439;-77
2022/11/30 12:05:50;;;;;;;50.45;38.65;;;7.10;99.90;;;;;;5002098;28;21689;-78
2022/11/30 12:08:28;;;;;;;48.03;39.80;;;7.10;99.90;;;;;;5007376;28;20432;-77
2022/11/30 12:11:01;;;;;;;47.97;38.50;;;7.10;99.90;;;;;;5004496;28;20440;-77
2022/11/30 12:13:33;;;;;;;46.60;39.10;;;7.20;99.90;;;;;;5006327;28;20424;-77
2022/11/30 12:16:09;;;;;;;48.15;38.83;;;7.20;99.90;;;;;;5001618;28;20472;-77
2022/11/30 12:18:44;;;;;;;47.38;38.03;;;7.10;99.90;;;;;;5006044;28;20440;-77
2022/11/30 12:21:15;;;;;;;47.97;40.20;;;7.10;99.90;;;;;;5005875;28;20441;-77
2022/11/30 12:24:04;;;;;;;50.05;40.70;;;7.10;99.90;;;;;;5000958;28;20476;-77
2022/11/30 12:26:39;;;;;;;52.53;40.97;;;7.10;99.90;;;;;;5004393;28;20432;-77
2022/11/30 12:29:20;;;;;;;52.53;43.08;;;7.20;99.90;;;;;;5001537;28;20430;-78
2022/11/30 12:31:59;;;;;;;50.10;40.60;;;7.10;99.90;;;;;;5001669;28;20485;-77
2022/11/30 12:34:47;;;;;;;51.75;41.88;;;7.10;99.90;;;;;;4997258;28;20433;-77
2022/11/30 12:37:22;;;;;;;53.90;41.92;;;7.10;99.90;;;;;;5003847;28;20438;-77
2022/11/30 12:40:00;;;;;;;55.70;42.40;;;7.10;99.90;;;;;;5003689;28;20432;-77
2022/11/30 12:42:37;;;;;;;52.28;41.65;;;7.10;99.90;;;;;;5004681;28;20429;-77
2022/11/30 12:45:16;;;;;;;52.25;42.10;;;7.00;99.90;;;;;;4996253;28;20468;-77
2022/11/30 12:47:54;;;;;;;51.15;41.13;;;7.00;99.90;;;;;;5002750;28;20432;-78
2022/11/30 12:50:41;;;;;;;57.33;43.42;;;7.00;99.90;;;;;;5002092;28;20929;-77